createdAt,value
2022-10-11T00:01:13.379Z,12.30
2022-10-11T00:03:42.040Z,12.40
2022-10-11T00:06:10.522Z,12.40
2022-10-11T00:08:39.003Z,12.50
2022-10-11T00:11:09.237Z,12.50
2022-10-11T00:13:37.810Z,12.56
2022-10-11T00:16:14.381Z,12.60
2022-10-11T00:18:43.000Z,12.66
2022-10-11T00:21:14.625Z,12.70
2022-10-11T00:23:43.721Z,12.70
2022-10-11T00:26:12.613Z,12.70
2022-10-11T00:28:42.304Z,12.70
2022-10-11T00:31:16.009Z,12.70
2022-10-11T00:33:44.918Z,12.70
2022-10-11T00:36:17.602Z,12.70
2022-10-11T00:38:46.550Z,12.70
2022-10-11T00:41:16.693Z,12.70
2022-10-11T00:43:45.809Z,12.70
2022-10-11T00:46:14.188Z,12.70
2022-10-11T00:48:50.814Z,12.70
2022-10-11T00:51:53.446Z,12.68
2022-10-11T00:54:27.786Z,12.60
2022-10-11T00:57:09.539Z,12.60
2022-10-11T00:59:44.196Z,12.60
2022-10-11T01:02:13.997Z,12.60
2022-10-11T01:04:43.105Z,12.60
2022-10-11T01:07:12.497Z,12.50
2022-10-11T01:09:41.082Z,12.50
2022-10-11T01:12:24.990Z,12.50
2022-10-11T01:15:10.711Z,12.50
2022-10-11T01:17:56.293Z,12.50
2022-10-11T01:20:41.367Z,12.50
2022-10-11T01:23:59.616Z,12.48
2022-10-11T01:27:10.900Z,12.42
2022-10-11T01:29:50.440Z,12.40
2022-10-11T01:32:49.441Z,12.40
2022-10-11T01:35:41.165Z,12.30
2022-10-11T01:38:33.303Z,12.30
2022-10-11T01:41:12.434Z,12.20
2022-10-11T01:43:41.839Z,12.20
2022-10-11T01:46:11.202Z,12.16
2022-10-11T01:48:57.419Z,12.10
2022-10-11T01:51:46.980Z,12.10
2022-10-11T01:54:35.224Z,12.00
2022-10-11T01:57:59.558Z,11.90
2022-10-11T02:01:37.155Z,11.90
2022-10-11T02:04:48.446Z,11.80
2022-10-11T02:07:23.561Z,11.70
2022-10-11T02:10:15.206Z,11.64
2022-10-11T02:12:54.234Z,11.64
2022-10-11T02:15:23.822Z,11.60
2022-10-11T02:17:57.576Z,11.60
2022-10-11T02:20:30.534Z,11.60
2022-10-11T02:23:17.249Z,11.50
2022-10-11T02:25:48.596Z,11.50
2022-10-11T02:28:30.304Z,11.50
2022-10-11T02:31:01.714Z,11.40
2022-10-11T02:33:53.668Z,11.38
2022-10-11T02:36:37.921Z,11.30
2022-10-11T02:39:17.047Z,11.30
2022-10-11T02:41:47.008Z,11.30
2022-10-11T02:44:40.844Z,11.20
2022-10-11T02:47:10.146Z,11.20
2022-10-11T02:49:38.627Z,11.10
2022-10-11T02:52:07.318Z,11.10
2022-10-11T02:54:35.940Z,11.10
2022-10-11T02:57:04.386Z,11.04
2022-10-11T02:59:32.862Z,11.00
2022-10-11T03:02:01.323Z,10.90
2022-10-11T03:04:30.036Z,10.90
2022-10-11T03:06:58.512Z,10.90
2022-10-11T03:09:27.303Z,10.90
2022-10-11T03:11:55.811Z,10.90
2022-10-11T03:14:24.984Z,10.80
2022-10-11T03:16:53.468Z,10.80
2022-10-11T03:19:21.946Z,10.80
2022-10-11T03:21:50.428Z,10.80
2022-10-11T03:24:18.911Z,10.70
2022-10-11T03:26:47.393Z,10.70
2022-10-11T03:29:15.874Z,10.60
2022-10-11T03:31:44.359Z,10.60
2022-10-11T03:34:12.839Z,10.60
2022-10-11T03:36:41.422Z,10.70
2022-10-11T03:39:10.008Z,10.70
2022-10-11T03:41:38.489Z,10.70
2022-10-11T03:44:06.980Z,10.68
2022-10-11T03:46:35.457Z,10.64
2022-10-11T03:49:03.937Z,10.62
2022-10-11T03:51:32.317Z,10.60
2022-10-11T03:54:00.697Z,10.56
2022-10-11T03:56:29.176Z,10.52
2022-10-11T03:58:57.669Z,10.50
2022-10-11T04:01:26.178Z,10.50
2022-10-11T04:03:58.002Z,10.50
2022-10-11T04:06:26.484Z,10.50
2022-10-11T04:08:54.863Z,10.50
2022-10-11T04:11:23.449Z,10.50
2022-10-11T04:13:51.959Z,10.40
2022-10-11T04:16:20.515Z,10.38
2022-10-11T04:18:48.998Z,10.30
2022-10-11T04:21:18.299Z,10.30
2022-10-11T04:23:46.676Z,10.38
2022-10-11T04:26:15.158Z,10.36
2022-10-11T04:28:43.782Z,10.40
2022-10-11T04:31:12.224Z,10.32
2022-10-11T04:33:40.914Z,10.30
2022-10-11T04:36:09.527Z,10.30
2022-10-11T04:38:37.978Z,10.20
2022-10-11T04:41:11.374Z,10.20
2022-10-11T04:43:40.370Z,10.20
2022-10-11T04:46:10.564Z,10.20
2022-10-11T04:48:39.385Z,10.20
2022-10-11T04:51:07.863Z,10.20
2022-10-11T04:53:36.449Z,10.10
2022-10-11T04:56:11.314Z,10.00
2022-10-11T04:58:41.399Z,9.90
2022-10-11T05:01:10.598Z,9.90
2022-10-11T05:03:39.089Z,9.90
2022-10-11T05:06:08.001Z,9.88
2022-10-11T05:08:36.823Z,9.90
2022-10-11T05:11:10.874Z,9.82
2022-10-11T05:13:39.578Z,9.80
2022-10-11T05:16:10.800Z,9.80
2022-10-11T05:18:40.725Z,9.70
2022-10-11T05:21:24.156Z,9.70
2022-10-11T05:23:56.157Z,9.70
2022-10-11T05:26:27.921Z,9.60
2022-10-11T05:28:56.623Z,9.58
2022-10-11T05:31:25.153Z,9.44
2022-10-11T05:33:53.632Z,9.40
2022-10-11T05:36:22.524Z,9.36
2022-10-11T05:38:50.911Z,9.30
2022-10-11T05:41:19.387Z,9.28
2022-10-11T05:43:47.970Z,9.22
2022-10-11T05:46:16.963Z,9.30
2022-10-11T05:48:45.560Z,9.20
2022-10-11T05:51:14.542Z,9.20
2022-10-11T05:53:43.949Z,9.30
2022-10-11T05:56:21.439Z,9.40
2022-10-11T05:58:51.563Z,9.58
2022-10-11T06:01:26.358Z,9.70
2022-10-11T06:03:56.119Z,9.80
2022-10-11T06:06:24.583Z,9.90
2022-10-11T06:08:53.065Z,10.14
2022-10-11T06:11:26.134Z,10.30
2022-10-11T06:13:56.500Z,10.48
2022-10-11T06:16:26.397Z,10.60
2022-10-11T06:18:56.587Z,10.70
2022-10-11T06:21:25.207Z,10.90
2022-10-11T06:23:59.987Z,11.10
2022-10-11T06:26:30.647Z,11.30
2022-10-11T06:28:59.282Z,11.60
2022-10-11T06:31:27.873Z,11.90
2022-10-11T06:33:56.419Z,12.30
2022-10-11T06:36:25.526Z,12.60
2022-10-11T06:38:55.339Z,13.02
2022-10-11T06:41:27.520Z,13.50
2022-10-11T06:43:56.953Z,14.00
2022-10-11T06:46:28.179Z,14.36
2022-10-11T06:48:56.834Z,14.76
2022-10-11T06:51:26.187Z,15.16
2022-10-11T06:53:58.203Z,15.52
2022-10-11T06:56:28.517Z,15.84
2022-10-11T06:58:58.783Z,16.10
2022-10-11T07:01:28.402Z,16.40
2022-10-11T07:03:58.483Z,16.70
2022-10-11T07:06:31.085Z,17.00
2022-10-11T07:09:00.960Z,17.20
2022-10-11T07:11:29.664Z,17.38
2022-10-11T07:14:01.824Z,17.64
2022-10-11T07:16:30.991Z,17.90
2022-10-11T07:19:02.372Z,18.00
2022-10-11T07:21:33.310Z,17.88
2022-10-11T07:24:02.822Z,17.70
2022-10-11T07:26:37.637Z,17.50
2022-10-11T07:29:09.314Z,17.42
2022-10-11T07:31:41.547Z,17.50
2022-10-11T07:34:10.988Z,17.50
2022-10-11T07:36:39.568Z,17.86
2022-10-11T07:39:09.701Z,18.00
2022-10-11T07:41:44.659Z,18.14
2022-10-11T07:44:14.966Z,18.62
2022-10-11T07:46:43.533Z,19.02
2022-10-11T07:49:12.018Z,19.50
2022-10-11T07:51:40.495Z,19.74
2022-10-11T07:54:09.488Z,20.02
2022-10-11T07:56:38.509Z,20.54
2022-10-11T07:59:08.348Z,20.94
2022-10-11T08:01:36.940Z,21.16
2022-10-11T08:04:06.235Z,21.52
2022-10-11T08:06:36.814Z,21.88
2022-10-11T08:09:06.017Z,22.20
2022-10-11T08:11:38.704Z,22.24
2022-10-11T08:14:11.582Z,22.12
2022-10-11T08:16:41.231Z,22.40
2022-10-11T08:19:11.201Z,22.70
2022-10-11T08:21:39.876Z,22.94
2022-10-11T08:24:08.644Z,23.00
2022-10-11T08:26:37.280Z,23.26
2022-10-11T08:29:06.087Z,22.90
2022-10-11T08:31:35.332Z,23.18
2022-10-11T08:34:04.197Z,23.10
2022-10-11T08:36:33.049Z,23.10
2022-10-11T08:39:01.987Z,23.40
2022-10-11T08:41:49.978Z,23.70
2022-10-11T08:44:58.386Z,23.90
2022-10-11T08:47:36.805Z,24.30
2022-10-11T08:50:08.174Z,24.50
2022-10-11T08:52:57.114Z,24.38
2022-10-11T08:55:44.335Z,24.40
2022-10-11T08:58:17.631Z,24.50
2022-10-11T09:00:50.283Z,24.60
2022-10-11T09:03:41.235Z,24.70
2022-10-11T09:06:41.035Z,24.70
2022-10-11T09:09:39.930Z,24.60
2022-10-11T09:12:26.144Z,24.60
2022-10-11T09:15:20.108Z,24.70
2022-10-11T09:18:13.167Z,24.70
2022-10-11T09:21:13.701Z,24.60
2022-10-11T09:23:48.224Z,24.60
2022-10-11T09:26:30.049Z,24.60
2022-10-11T09:29:10.557Z,24.60
2022-10-11T09:31:39.698Z,24.48
2022-10-11T09:34:15.099Z,24.40
2022-10-11T09:37:22.827Z,24.20
2022-10-11T09:40:07.541Z,24.30
2022-10-11T09:42:36.077Z,24.32
2022-10-11T09:45:17.255Z,24.50
2022-10-11T09:47:46.143Z,24.68
2022-10-11T09:50:26.409Z,24.70
2022-10-11T09:53:02.154Z,24.52
2022-10-11T09:55:52.643Z,24.40
2022-10-11T09:58:34.550Z,24.20
2022-10-11T10:01:07.949Z,23.92
2022-10-11T10:03:43.419Z,23.30
2022-10-11T10:06:39.507Z,23.00
2022-10-11T10:09:30.727Z,22.74
2022-10-11T10:11:59.324Z,22.80
2022-10-11T10:14:30.983Z,22.70
2022-10-11T10:17:17.509Z,22.70
2022-10-11T10:20:00.505Z,22.50
2022-10-11T10:22:33.801Z,22.50
2022-10-11T10:25:08.254Z,22.20
2022-10-11T10:27:36.808Z,22.10
2022-10-11T10:30:08.363Z,22.06
2022-10-11T10:32:49.651Z,21.78
2022-10-11T10:35:49.052Z,21.20
2022-10-11T10:38:43.439Z,21.40
2022-10-11T10:41:15.452Z,21.50
2022-10-11T10:43:53.829Z,21.30
2022-10-11T10:46:40.324Z,21.30
2022-10-11T10:49:54.061Z,21.00
2022-10-11T10:53:16.410Z,20.98
2022-10-11T10:55:52.346Z,20.18
2022-10-11T10:58:45.938Z,19.80
2022-10-11T11:01:23.830Z,19.40
2022-10-11T11:04:30.625Z,19.40
2022-10-11T11:07:30.543Z,19.20
2022-10-11T11:10:21.245Z,19.20
2022-10-11T11:13:04.789Z,19.20
2022-10-11T11:15:49.034Z,19.20
2022-10-11T11:18:41.475Z,18.98
2022-10-11T11:21:31.158Z,18.56
2022-10-11T11:24:24.109Z,18.30
2022-10-11T11:27:10.617Z,17.90
2022-10-11T11:30:14.914Z,17.68
2022-10-11T11:33:01.646Z,17.60
2022-10-11T11:35:45.592Z,17.90
2022-10-11T11:38:43.567Z,18.00
2022-10-11T11:41:21.894Z,17.90
2022-10-11T11:44:10.020Z,17.90
2022-10-11T11:47:12.601Z,18.00
2022-10-11T11:49:48.412Z,17.98
2022-10-11T11:52:45.101Z,18.02
2022-10-11T11:55:37.953Z,17.80
2022-10-11T11:58:31.423Z,17.70
2022-10-11T12:01:31.495Z,17.60
2022-10-11T12:04:33.512Z,17.50
2022-10-11T12:07:48.963Z,17.40
2022-10-11T12:10:53.522Z,17.34
2022-10-11T12:13:36.648Z,17.24
2022-10-11T12:16:10.057Z,17.10
2022-10-11T12:18:50.610Z,17.10
2022-10-11T12:21:21.961Z,17.20
2022-10-11T12:23:53.826Z,17.30
2022-10-11T12:26:28.043Z,17.30
2022-10-11T12:29:18.656Z,17.30
2022-10-11T12:32:31.154Z,17.50
2022-10-11T12:35:31.102Z,17.60
2022-10-11T12:38:18.928Z,17.70
2022-10-11T12:40:52.685Z,17.70
2022-10-11T12:43:33.001Z,17.70
2022-10-11T12:46:29.514Z,17.70
2022-10-11T12:49:38.034Z,17.60
2022-10-11T12:52:28.738Z,17.36
2022-10-11T12:55:56.305Z,17.28
2022-10-11T12:58:44.245Z,17.20
2022-10-11T13:01:19.375Z,17.10
2022-10-11T13:04:11.929Z,17.00
2022-10-11T13:06:54.780Z,16.90
2022-10-11T13:09:36.380Z,16.70
2022-10-11T13:12:07.085Z,16.64
2022-10-11T13:14:43.442Z,16.70
2022-10-11T13:17:22.264Z,16.80
2022-10-11T13:20:17.621Z,17.00
2022-10-11T13:22:53.832Z,17.10
2022-10-11T13:25:36.043Z,17.20
2022-10-11T13:28:09.618Z,17.30
2022-10-11T13:30:44.077Z,17.38
2022-10-11T13:33:35.871Z,17.50
2022-10-11T13:36:09.623Z,17.50
2022-10-11T13:38:38.297Z,17.48
2022-10-11T13:41:10.913Z,17.46
2022-10-11T13:43:41.120Z,17.40
2022-10-11T13:46:22.165Z,17.40
2022-10-11T13:49:23.721Z,17.40
2022-10-11T13:52:18.740Z,17.30
2022-10-11T13:54:53.664Z,17.34
2022-10-11T13:57:42.315Z,17.30
2022-10-11T14:00:38.091Z,17.40
2022-10-11T14:03:13.082Z,17.50
2022-10-11T14:05:51.897Z,17.50
2022-10-11T14:09:05.338Z,17.50
2022-10-11T14:11:40.608Z,17.50
2022-10-11T14:14:35.915Z,17.40
2022-10-11T14:17:11.532Z,17.30
2022-10-11T14:19:40.429Z,17.30
2022-10-11T14:22:17.871Z,17.30
2022-10-11T14:24:49.479Z,17.40
2022-10-11T14:27:23.984Z,17.46
2022-10-11T14:30:13.005Z,17.50
2022-10-11T14:32:42.573Z,17.40
2022-10-11T14:35:18.290Z,17.30
2022-10-11T14:37:47.379Z,17.30
2022-10-11T14:40:23.005Z,17.22
2022-10-11T14:42:52.163Z,17.10
2022-10-11T14:45:21.667Z,17.10
2022-10-11T14:47:50.255Z,17.00
2022-10-11T14:50:43.824Z,16.90
2022-10-11T14:53:12.612Z,16.80
2022-10-11T14:55:42.664Z,16.80
2022-10-11T14:58:15.206Z,16.80
2022-10-11T15:00:44.382Z,16.70
2022-10-11T15:03:14.117Z,16.70
2022-10-11T15:05:42.498Z,16.60
2022-10-11T15:08:12.288Z,16.50
2022-10-11T15:10:42.300Z,16.40
2022-10-11T15:13:10.912Z,16.30
2022-10-11T15:15:41.370Z,16.30
2022-10-11T15:18:16.989Z,16.20
2022-10-11T15:20:46.859Z,16.12
2022-10-11T15:23:15.490Z,16.10
2022-10-11T15:25:44.177Z,16.02
2022-10-11T15:28:32.210Z,16.00
2022-10-11T15:31:01.621Z,15.90
2022-10-11T15:33:30.103Z,15.80
2022-10-11T15:35:58.585Z,15.80
2022-10-11T15:38:28.110Z,15.70
2022-10-11T15:40:56.778Z,15.70
2022-10-11T15:43:27.787Z,15.60
2022-10-11T15:45:58.141Z,15.60
2022-10-11T15:48:27.571Z,15.50
2022-10-11T15:50:56.235Z,15.50
2022-10-11T15:53:31.627Z,15.40
2022-10-11T15:56:08.151Z,15.26
2022-10-11T15:58:40.978Z,15.10
2022-10-11T16:01:17.983Z,15.02
2022-10-11T16:03:49.068Z,14.90
2022-10-11T16:06:19.615Z,14.80
2022-10-11T16:08:48.482Z,14.62
2022-10-11T16:11:17.065Z,14.50
2022-10-11T16:13:45.648Z,14.40
2022-10-11T16:16:14.439Z,14.30
2022-10-11T16:18:43.095Z,14.20
2022-10-11T16:21:15.808Z,14.10
2022-10-11T16:23:44.399Z,14.00
2022-10-11T16:26:16.523Z,13.90
2022-10-11T16:28:45.478Z,13.80
2022-10-11T16:31:18.410Z,13.70
2022-10-11T16:33:48.197Z,13.60
2022-10-11T16:36:40.818Z,13.52
2022-10-11T16:39:18.549Z,13.40
2022-10-11T16:41:47.845Z,13.30
2022-10-11T16:44:24.348Z,13.28
2022-10-11T16:46:52.852Z,13.18
2022-10-11T16:49:25.179Z,13.08
2022-10-11T16:51:56.435Z,13.00
2022-10-11T16:54:27.368Z,13.00
2022-10-11T16:56:55.997Z,12.90
2022-10-11T16:59:24.695Z,12.80
2022-10-11T17:01:53.369Z,12.70
2022-10-11T17:04:22.569Z,12.60
2022-10-11T17:06:52.074Z,12.50
2022-10-11T17:09:20.697Z,12.50
2022-10-11T17:11:49.551Z,12.40
2022-10-11T17:14:18.356Z,12.30
2022-10-11T17:16:47.126Z,12.20
2022-10-11T17:19:16.257Z,12.12
2022-10-11T17:21:44.705Z,12.10
2022-10-11T17:24:13.187Z,12.10
2022-10-11T17:26:41.672Z,12.00
2022-10-11T17:29:17.348Z,11.90
2022-10-11T17:31:49.146Z,11.88
2022-10-11T17:34:18.688Z,11.76
2022-10-11T17:36:48.172Z,11.62
2022-10-11T17:39:20.979Z,11.60
2022-10-11T17:41:50.559Z,11.50
2022-10-11T17:44:20.289Z,11.40
2022-10-11T17:46:49.391Z,11.30
2022-10-11T17:49:17.874Z,11.30
2022-10-11T17:51:46.355Z,11.20
2022-10-11T17:54:14.840Z,11.14
2022-10-11T17:56:43.323Z,11.02
2022-10-11T17:59:27.592Z,11.00
2022-10-11T18:01:56.569Z,11.00
2022-10-11T18:04:27.505Z,10.90
2022-10-11T18:06:56.806Z,10.90
2022-10-11T18:09:25.376Z,10.90
2022-10-11T18:11:53.883Z,10.80
2022-10-11T18:14:22.563Z,10.80
2022-10-11T18:16:51.040Z,10.74
2022-10-11T18:19:19.523Z,10.70
2022-10-11T18:21:48.009Z,10.66
2022-10-11T18:24:17.427Z,10.60
2022-10-11T18:26:47.224Z,10.50
2022-10-11T18:29:16.945Z,10.46
2022-10-11T18:31:46.440Z,10.40
2022-10-11T18:34:16.158Z,10.40
2022-10-11T18:36:44.877Z,10.30
2022-10-11T18:39:15.991Z,10.30
2022-10-11T18:41:45.080Z,10.30
2022-10-11T18:44:15.905Z,10.20
2022-10-11T18:46:45.936Z,10.20
2022-10-11T18:49:14.869Z,10.10
2022-10-11T18:51:46.512Z,10.02
2022-10-11T18:54:20.067Z,10.00
2022-10-11T18:56:49.899Z,9.94
2022-10-11T18:59:18.889Z,9.90
2022-10-11T19:01:48.452Z,9.84
2022-10-11T19:04:17.560Z,9.80
2022-10-11T19:06:49.273Z,9.70
2022-10-11T19:09:22.805Z,9.70
2022-10-11T19:11:54.640Z,9.60
2022-10-11T19:14:28.539Z,9.50
2022-10-11T19:16:57.868Z,9.50
2022-10-11T19:19:29.609Z,9.46
2022-10-11T19:21:58.065Z,9.40
2022-10-11T19:24:29.475Z,9.30
2022-10-11T19:27:02.514Z,9.30
2022-10-11T19:29:32.624Z,9.34
2022-10-11T19:32:03.882Z,9.30
2022-10-11T19:34:33.175Z,9.40
2022-10-11T19:37:03.607Z,9.40
2022-10-11T19:39:32.737Z,9.40
2022-10-11T19:42:01.588Z,9.40
2022-10-11T19:44:31.800Z,9.32
2022-10-11T19:47:05.389Z,9.30
2022-10-11T19:49:34.178Z,9.22
2022-10-11T19:52:02.682Z,9.14
2022-10-11T19:54:32.333Z,9.00
2022-10-11T19:57:00.984Z,9.00
2022-10-11T19:59:29.566Z,8.98
2022-10-11T20:01:58.254Z,8.90
2022-10-11T20:04:51.013Z,8.94
2022-10-11T20:07:15.592Z,9.00
2022-10-11T20:09:44.289Z,8.98
2022-10-11T20:12:12.767Z,8.90
2022-10-11T20:14:41.242Z,8.80
2022-10-11T20:17:09.621Z,8.80
2022-10-11T20:19:38.247Z,8.70
2022-10-11T20:22:07.041Z,8.70
2022-10-11T20:24:36.300Z,8.60
2022-10-11T20:27:06.423Z,8.60
2022-10-11T20:29:35.412Z,8.60
2022-10-11T20:32:04.033Z,8.52
2022-10-11T20:34:32.785Z,8.60
2022-10-11T20:37:01.475Z,8.50
2022-10-11T20:39:30.101Z,8.40
2022-10-11T20:42:02.001Z,8.30
2022-10-11T20:44:31.837Z,8.30
2022-10-11T20:47:03.899Z,8.28
2022-10-11T20:49:32.894Z,8.30
2022-10-11T20:52:01.376Z,8.26
2022-10-11T20:54:31.152Z,8.20
2022-10-11T20:57:00.933Z,8.10
2022-10-11T20:59:29.584Z,8.10
2022-10-11T21:01:59.194Z,8.00
2022-10-11T21:04:27.675Z,7.90
2022-10-11T21:06:56.464Z,7.90
2022-10-11T21:09:25.151Z,7.90
2022-10-11T21:11:53.837Z,7.90
2022-10-11T21:14:23.174Z,7.90
2022-10-11T21:16:52.217Z,7.98
2022-10-11T21:19:21.126Z,8.00
2022-10-11T21:21:53.709Z,8.00
2022-10-11T21:24:23.529Z,7.90
2022-10-11T21:26:53.295Z,7.90
2022-10-11T21:29:23.451Z,7.80
2022-10-11T21:31:51.939Z,7.80
2022-10-11T21:34:20.418Z,7.70
2022-10-11T21:36:48.902Z,7.70
2022-10-11T21:39:17.380Z,7.60
2022-10-11T21:41:45.865Z,7.60
2022-10-11T21:44:14.450Z,7.50
2022-10-11T21:47:05.414Z,7.50
2022-10-11T21:49:31.482Z,7.50
2022-10-11T21:51:59.860Z,7.50
2022-10-11T21:54:28.347Z,7.50
2022-10-11T21:56:56.829Z,7.48
2022-10-11T21:59:25.308Z,7.40
2022-10-11T22:01:55.982Z,7.40
2022-10-11T22:04:27.914Z,7.40
2022-10-11T22:06:56.592Z,7.30
2022-10-11T22:09:25.276Z,7.30
2022-10-11T22:11:53.965Z,7.30
2022-10-11T22:14:22.550Z,7.30
2022-10-11T22:16:50.951Z,7.30
2022-10-11T22:19:19.616Z,7.28
2022-10-11T22:21:48.095Z,7.30
2022-10-11T22:24:17.030Z,7.16
2022-10-11T22:26:45.674Z,7.00
2022-10-11T22:29:14.162Z,6.90
2022-10-11T22:31:42.740Z,6.90
2022-10-11T22:34:11.222Z,6.90
2022-10-11T22:36:39.806Z,6.94
2022-10-11T22:39:10.131Z,7.00
2022-10-11T22:41:38.716Z,6.90
2022-10-11T22:44:07.508Z,6.90
2022-10-11T22:46:35.993Z,6.88
2022-10-11T22:49:04.573Z,6.82
2022-10-11T22:51:33.053Z,6.80
2022-10-11T22:54:01.536Z,6.80
2022-10-11T22:56:30.038Z,6.76
2022-10-11T22:58:59.661Z,6.70
2022-10-11T23:01:28.108Z,6.70
2022-10-11T23:03:56.872Z,6.76
2022-10-11T23:06:25.401Z,6.78
2022-10-11T23:08:53.862Z,6.70
2022-10-11T23:11:22.344Z,6.52
2022-10-11T23:13:50.825Z,6.50
2022-10-11T23:16:19.614Z,6.40
2022-10-11T23:18:48.101Z,6.40
2022-10-11T23:21:16.476Z,6.30
2022-10-11T23:23:45.266Z,6.30
2022-10-11T23:26:17.434Z,6.30
2022-10-11T23:28:46.172Z,6.34
2022-10-11T23:31:19.108Z,6.40
2022-10-11T23:33:48.819Z,6.40
2022-10-11T23:36:20.792Z,6.40
2022-10-11T23:38:58.540Z,6.40
2022-10-11T23:41:30.101Z,6.30
2022-10-11T23:43:59.235Z,6.20
2022-10-11T23:46:27.817Z,6.20
2022-10-11T23:48:56.402Z,6.20
2022-10-11T23:51:24.884Z,6.10
2022-10-11T23:53:53.665Z,6.10
2022-10-11T23:56:22.158Z,6.10
2022-10-11T23:58:50.842Z,6.10
